Aérodrome :
LOGIN :

S'inscrire | Disclaimer

   EN    FR    IT 

 










Légende :    VFR   VFR Marginal   IFR   IFR Intensif   IFR Très Intensif
Visi : 
Plafond : 
>= 8 km
>= 3000ft
5 à 8 km
1000 à 3000 ft
1500m à 5 km
500 à 1000 ft
800 à 1500m
200 à 500 ft
< 800m
< 200 ft
Symboles :   Orages  Brouillard  Fortes neiges  Fortes précipitations  Vent > 20 kt
SIGMETs :   Divers  Orages  Givrage  Turbulence  Onde Orograph.  Cendres Volcan.






- Altitude de l'aérodrome : 863 ft
- Code IATA : ZAZ


LEZG - Zaragoza Aragon

DERNIER METAR :
  • 231300Z 26017KT 230V290 9999 -RA FEW050 BKN070 11/04 Q1009

METARs EXPIRÉS :
  • 231230Z 26021G33KT 9999 FEW050 SCT080 12/03 Q1009
  • 231200Z 25020KT 210V280 9999 FEW050 SCT085 12/03 Q1009
  • 231130Z 25024KT 9999 FEW050 SCT075 12/03 Q1010
  • 231100Z 24016KT 9999 FEW050 SCT085 11/03 Q1010
  • 231030Z 24016KT 9999 FEW050 SCT085 10/03 Q1010

TAF AMD TAF LEZG
Valide du 23 à 12h jusqu'au 24 à 12h UTC


231229Z 2312/2412 23018KT 9999 RA BKN060 TX13/2314Z TN06/2406Z
TEMPO 2312/2322 4000 RA
TEMPO 2312/2314 26020G34KT
TEMPO 2313/2318 23012KT
TEMPO 2321/2402 25020G40KT



MET'MAP, la Météo Aéronautique d'un coup d'oeil ! - Copyright ORBIFLY Décembre 2007 - Disclaimer

ORBIFLY MET'MAP TEAM :

Programmation & Développement : Alexandra Zaïnal
Sur une idée originale de : Baudouin d'Aumeries
Assistance à la programmation : Marc-Olivier Méhu
Soutien technique & logistique : Manuel Goepfert

Contact : metmap@orbifly.com




SOURCES & CREDITS :

   NOAA